sensor_id;sensor_type;location;lat;lon;timestamp;pressure;altitude;pressure_sealevel;temperature;humidity
11880;BME280;5999;43.256;27.816;2022-10-16T00:02:25;101003.25;;;11.97;100.00
11880;BME280;5999;43.256;27.816;2022-10-16T00:04:52;100999.22;;;11.86;100.00
11880;BME280;5999;43.256;27.816;2022-10-16T00:07:20;101001.66;;;11.93;100.00
11880;BME280;5999;43.256;27.816;2022-10-16T00:09:47;101007.97;;;11.89;100.00
11880;BME280;5999;43.256;27.816;2022-10-16T00:12:14;100996.53;;;11.88;100.00
11880;BME280;5999;43.256;27.816;2022-10-16T00:14:41;101008.19;;;11.82;100.00
11880;BME280;5999;43.256;27.816;2022-10-16T00:17:10;101009.22;;;11.78;100.00
11880;BME280;5999;43.256;27.816;2022-10-16T00:19:37;101008.31;;;11.79;100.00
11880;BME280;5999;43.256;27.816;2022-10-16T00:22:05;101010.22;;;11.76;100.00
11880;BME280;5999;43.256;27.816;2022-10-16T00:24:32;101007.34;;;11.82;100.00
11880;BME280;5999;43.256;27.816;2022-10-16T00:26:59;101008.19;;;11.82;100.00
11880;BME280;5999;43.256;27.816;2022-10-16T00:29:26;101008.31;;;11.79;100.00
11880;BME280;5999;43.256;27.816;2022-10-16T00:31:53;101008.66;;;11.70;100.00
11880;BME280;5999;43.256;27.816;2022-10-16T00:34:19;101009.59;;;11.69;100.00
11880;BME280;5999;43.256;27.816;2022-10-16T00:36:47;101005.03;;;11.73;100.00
11880;BME280;5999;43.256;27.816;2022-10-16T00:39:14;101001.50;;;11.74;100.00
11880;BME280;5999;43.256;27.816;2022-10-16T00:41:41;101003.28;;;11.73;100.00
11880;BME280;5999;43.256;27.816;2022-10-16T00:44:45;100999.59;;;11.77;100.00
11880;BME280;5999;43.256;27.816;2022-10-16T00:47:17;100998.47;;;11.61;100.00
11880;BME280;5999;43.256;27.816;2022-10-16T00:49:47;101002.00;;;11.60;100.00
11880;BME280;5999;43.256;27.816;2022-10-16T00:52:15;101009.00;;;11.61;100.00
11880;BME280;5999;43.256;27.816;2022-10-16T00:54:43;101005.00;;;11.51;100.00
11880;BME280;5999;43.256;27.816;2022-10-16T00:57:10;101006.97;;;11.44;100.00
11880;BME280;5999;43.256;27.816;2022-10-16T00:59:39;101000.63;;;11.50;100.00
11880;BME280;5999;43.256;27.816;2022-10-16T01:02:08;100998.03;;;11.48;100.00
11880;BME280;5999;43.256;27.816;2022-10-16T01:04:40;101004.91;;;11.52;100.00
11880;BME280;5999;43.256;27.816;2022-10-16T01:07:12;101017.31;;;11.50;100.00
11880;BME280;5999;43.256;27.816;2022-10-16T01:09:51;101032.50;;;11.43;100.00
11880;BME280;5999;43.256;27.816;2022-10-16T01:12:28;101024.59;;;11.43;100.00
11880;BME280;5999;43.256;27.816;2022-10-16T01:15:04;101038.47;;;11.49;100.00
11880;BME280;5999;43.256;27.816;2022-10-16T01:17:37;101034.09;;;11.48;100.00
11880;BME280;5999;43.256;27.816;2022-10-16T01:20:13;101038.53;;;11.47;100.00
11880;BME280;5999;43.256;27.816;2022-10-16T01:22:56;101047.41;;;11.44;100.00
11880;BME280;5999;43.256;27.816;2022-10-16T01:25:51;101051.94;;;11.41;100.00
11880;BME280;5999;43.256;27.816;2022-10-16T01:28:27;101053.81;;;11.37;100.00
11880;BME280;5999;43.256;27.816;2022-10-16T01:30:58;101052.03;;;11.38;100.00
11880;BME280;5999;43.256;27.816;2022-10-16T01:33:30;101055.63;;;11.35;100.00
11880;BME280;5999;43.256;27.816;2022-10-16T01:36:04;101061.09;;;11.31;100.00
11880;BME280;5999;43.256;27.816;2022-10-16T01:38:36;101062.53;;;11.39;100.00
11880;BME280;5999;43.256;27.816;2022-10-16T01:41:08;101069.84;;;11.31;100.00
11880;BME280;5999;43.256;27.816;2022-10-16T01:43:42;101067.03;;;11.36;100.00
11880;BME280;5999;43.256;27.816;2022-10-16T01:46:10;101063.81;;;11.27;100.00
11880;BME280;5999;43.256;27.816;2022-10-16T01:48:40;101062.75;;;11.33;100.00
11880;BME280;5999;43.256;27.816;2022-10-16T01:51:10;101063.28;;;11.18;100.00
11880;BME280;5999;43.256;27.816;2022-10-16T01:53:38;101068.34;;;11.24;100.00
11880;BME280;5999;43.256;27.816;2022-10-16T01:56:08;101067.34;;;11.28;100.00
11880;BME280;5999;43.256;27.816;2022-10-16T01:58:40;101071.09;;;11.21;100.00
11880;BME280;5999;43.256;27.816;2022-10-16T02:01:10;101058.97;;;11.15;100.00
11880;BME280;5999;43.256;27.816;2022-10-16T02:03:40;101059.69;;;11.20;100.00
11880;BME280;5999;43.256;27.816;2022-10-16T02:06:10;101058.72;;;11.23;100.00
11880;BME280;5999;43.256;27.816;2022-10-16T02:08:37;101062.53;;;11.14;100.00
11880;BME280;5999;43.256;27.816;2022-10-16T02:11:05;101065.94;;;11.18;100.00
11880;BME280;5999;43.256;27.816;2022-10-16T02:13:37;101061.69;;;11.14;100.00
11880;BME280;5999;43.256;27.816;2022-10-16T02:16:07;101071.47;;;11.10;100.00
11880;BME280;5999;43.256;27.816;2022-10-16T02:18:35;101074.06;;;11.12;100.00
11880;BME280;5999;43.256;27.816;2022-10-16T02:21:05;101074.69;;;11.18;100.00
11880;BME280;5999;43.256;27.816;2022-10-16T02:23:40;101071.56;;;11.07;100.00
11880;BME280;5999;43.256;27.816;2022-10-16T02:26:13;101066.16;;;11.12;100.00
11880;BME280;5999;43.256;27.816;2022-10-16T02:28:44;101077.03;;;11.01;100.00
11880;BME280;5999;43.256;27.816;2022-10-16T02:31:18;101070.06;;;11.00;100.00
11880;BME280;5999;43.256;27.816;2022-10-16T02:33:47;101082.50;;;10.95;100.00
11880;BME280;5999;43.256;27.816;2022-10-16T02:36:14;101082.78;;;10.87;100.00
11880;BME280;5999;43.256;27.816;2022-10-16T02:38:41;101069.81;;;10.81;100.00
11880;BME280;5999;43.256;27.816;2022-10-16T02:41:08;101080.16;;;10.87;100.00
11880;BME280;5999;43.256;27.816;2022-10-16T02:43:35;101070.72;;;10.80;100.00
11880;BME280;5999;43.256;27.816;2022-10-16T02:46:02;101078.00;;;10.72;100.00
11880;BME280;5999;43.256;27.816;2022-10-16T02:48:30;101075.28;;;10.75;100.00
11880;BME280;5999;43.256;27.816;2022-10-16T02:50:56;101070.84;;;10.77;100.00
11880;BME280;5999;43.256;27.816;2022-10-16T02:53:23;101062.41;;;10.65;100.00
11880;BME280;5999;43.256;27.816;2022-10-16T02:55:50;101064.94;;;10.69;100.00
11880;BME280;5999;43.256;27.816;2022-10-16T02:58:17;101064.34;;;10.60;100.00
11880;BME280;5999;43.256;27.816;2022-10-16T03:00:44;101062.66;;;10.58;100.00
11880;BME280;5999;43.256;27.816;2022-10-16T03:03:11;101062.66;;;10.58;100.00
11880;BME280;5999;43.256;27.816;2022-10-16T03:05:38;101067.78;;;10.62;100.00
11880;BME280;5999;43.256;27.816;2022-10-16T03:08:05;101064.34;;;10.60;100.00
11880;BME280;5999;43.256;27.816;2022-10-16T03:10:32;101066.06;;;10.61;100.00
11880;BME280;5999;43.256;27.816;2022-10-16T03:12:59;101056.81;;;10.48;100.00
11880;BME280;5999;43.256;27.816;2022-10-16T03:15:26;101065.19;;;10.61;100.00
11880;BME280;5999;43.256;27.816;2022-10-16T03:17:54;101062.75;;;10.55;100.00
11880;BME280;5999;43.256;27.816;2022-10-16T03:20:21;101058.47;;;10.52;100.00
11880;BME280;5999;43.256;27.816;2022-10-16T03:22:48;101061.91;;;10.54;100.00
11880;BME280;5999;43.256;27.816;2022-10-16T03:25:15;101062.72;;;10.56;100.00
11880;BME280;5999;43.256;27.816;2022-10-16T03:27:42;101066.00;;;10.63;100.00
11880;BME280;5999;43.256;27.816;2022-10-16T03:30:10;101066.09;;;10.60;100.00
11880;BME280;5999;43.256;27.816;2022-10-16T03:32:37;101058.16;;;10.61;100.00
11880;BME280;5999;43.256;27.816;2022-10-16T03:35:04;101058.16;;;10.61;100.00
11880;BME280;5999;43.256;27.816;2022-10-16T03:37:31;101065.16;;;10.62;100.00
11880;BME280;5999;43.256;27.816;2022-10-16T03:39:59;101054.00;;;10.54;100.00
11880;BME280;5999;43.256;27.816;2022-10-16T03:42:26;101061.94;;;10.53;100.00
11880;BME280;5999;43.256;27.816;2022-10-16T03:44:53;101054.72;;;10.59;100.00
11880;BME280;5999;43.256;27.816;2022-10-16T03:47:20;101061.84;;;10.56;100.00
11880;BME280;5999;43.256;27.816;2022-10-16T03:49:49;101060.16;;;10.53;100.00
11880;BME280;5999;43.256;27.816;2022-10-16T03:52:16;101062.28;;;10.42;100.00
11880;BME280;5999;43.256;27.816;2022-10-16T03:54:43;101066.41;;;10.51;100.00
11880;BME280;5999;43.256;27.816;2022-10-16T03:57:10;101069.81;;;10.54;100.00
11880;BME280;5999;43.256;27.816;2022-10-16T03:59:37;101073.13;;;10.59;100.00
11880;BME280;5999;43.256;27.816;2022-10-16T04:02:04;101076.59;;;10.61;100.00
11880;BME280;5999;43.256;27.816;2022-10-16T04:04:31;101069.66;;;10.59;100.00
11880;BME280;5999;43.256;27.816;2022-10-16T04:06:58;101064.28;;;10.62;100.00
11880;BME280;5999;43.256;27.816;2022-10-16T04:09:24;101066.09;;;10.60;100.00
11880;BME280;5999;43.256;27.816;2022-10-16T04:11:51;101068.03;;;10.55;100.00
11880;BME280;5999;43.256;27.816;2022-10-16T04:14:19;101075.78;;;10.59;100.00
11880;BME280;5999;43.256;27.816;2022-10-16T04:16:46;101072.31;;;10.57;100.00
11880;BME280;5999;43.256;27.816;2022-10-16T04:19:12;101076.59;;;10.61;100.00
11880;BME280;5999;43.256;27.816;2022-10-16T04:21:39;101080.84;;;10.65;100.00
11880;BME280;5999;43.256;27.816;2022-10-16T04:24:06;101076.53;;;10.63;100.00
11880;BME280;5999;43.256;27.816;2022-10-16T04:26:33;101077.41;;;10.63;100.00
11880;BME280;5999;43.256;27.816;2022-10-16T04:29:00;101076.50;;;10.64;100.00
11880;BME280;5999;43.256;27.816;2022-10-16T04:31:27;101079.22;;;10.61;100.00
11880;BME280;5999;43.256;27.816;2022-10-16T04:33:54;101077.50;;;10.60;100.00
11880;BME280;5999;43.256;27.816;2022-10-16T04:36:21;101078.38;;;10.61;100.00
11880;BME280;5999;43.256;27.816;2022-10-16T04:38:48;101072.44;;;10.54;100.00
11880;BME280;5999;43.256;27.816;2022-10-16T04:41:15;101070.91;;;10.47;100.00
11880;BME280;5999;43.256;27.816;2022-10-16T04:43:42;101079.59;;;10.49;100.00
11880;BME280;5999;43.256;27.816;2022-10-16T04:46:09;101070.63;;;10.56;100.00
11880;BME280;5999;43.256;27.816;2022-10-16T04:48:37;101077.78;;;10.51;100.00
11880;BME280;5999;43.256;27.816;2022-10-16T04:51:04;101085.84;;;10.47;100.00
11880;BME280;5999;43.256;27.816;2022-10-16T04:53:31;101091.72;;;10.55;100.00
11880;BME280;5999;43.256;27.816;2022-10-16T04:55:57;101080.16;;;10.60;100.00
11880;BME280;5999;43.256;27.816;2022-10-16T04:58:24;101087.47;;;10.51;100.00
11880;BME280;5999;43.256;27.816;2022-10-16T05:00:51;101087.16;;;10.60;100.00
11880;BME280;5999;43.256;27.816;2022-10-16T05:03:18;101088.03;;;10.60;100.00
11880;BME280;5999;43.256;27.816;2022-10-16T05:05:46;101087.72;;;10.70;100.00
11880;BME280;5999;43.256;27.816;2022-10-16T05:08:14;101094.72;;;10.71;100.00
11880;BME280;5999;43.256;27.816;2022-10-16T05:10:42;101089.16;;;10.80;100.00
11880;BME280;5999;43.256;27.816;2022-10-16T05:13:09;101096.16;;;10.81;100.00
11880;BME280;5999;43.256;27.816;2022-10-16T05:15:36;101093.31;;;10.87;100.00
11880;BME280;5999;43.256;27.816;2022-10-16T05:18:03;101091.59;;;10.86;100.00
11880;BME280;5999;43.256;27.816;2022-10-16T05:20:30;101097.88;;;10.82;100.00
11880;BME280;5999;43.256;27.816;2022-10-16T05:22:58;101109.22;;;10.84;100.00
11880;BME280;5999;43.256;27.816;2022-10-16T05:25:25;101104.56;;;10.92;100.00
11880;BME280;5999;43.256;27.816;2022-10-16T05:27:52;101115.00;;;10.95;100.00
11880;BME280;5999;43.256;27.816;2022-10-16T05:30:19;101113.63;;;11.10;100.00
11880;BME280;5999;43.256;27.816;2022-10-16T05:32:47;101112.66;;;11.13;100.00
11880;BME280;5999;43.256;27.816;2022-10-16T05:35:14;101121.97;;;11.23;100.00
11880;BME280;5999;43.256;27.816;2022-10-16T05:37:41;101116.59;;;11.26;100.00
11880;BME280;5999;43.256;27.816;2022-10-16T05:40:10;101122.25;;;11.40;100.00
11880;BME280;5999;43.256;27.816;2022-10-16T05:42:37;101124.25;;;11.59;100.00
11880;BME280;5999;43.256;27.816;2022-10-16T05:45:05;101130.00;;;11.70;100.00
11880;BME280;5999;43.256;27.816;2022-10-16T05:47:32;101120.72;;;11.83;100.00
11880;BME280;5999;43.256;27.816;2022-10-16T05:49:59;101118.09;;;12.07;100.00
11880;BME280;5999;43.256;27.816;2022-10-16T05:52:27;101117.38;;;12.49;100.00
11880;BME280;5999;43.256;27.816;2022-10-16T05:54:54;101111.53;;;12.85;100.00
11880;BME280;5999;43.256;27.816;2022-10-16T05:57:21;101112.31;;;13.09;100.00
11880;BME280;5999;43.256;27.816;2022-10-16T05:59:48;101110.94;;;13.21;100.00
11880;BME280;5999;43.256;27.816;2022-10-16T06:02:15;101099.28;;;13.25;100.00
11880;BME280;5999;43.256;27.816;2022-10-16T06:04:42;101106.53;;;13.42;100.00
11880;BME280;5999;43.256;27.816;2022-10-16T06:07:09;101106.44;;;13.64;100.00
11880;BME280;5999;43.256;27.816;2022-10-16T06:09:36;101110.53;;;14.11;100.00
11880;BME280;5999;43.256;27.816;2022-10-16T06:12:03;101099.44;;;14.77;100.00
11880;BME280;5999;43.256;27.816;2022-10-16T06:14:30;101109.78;;;15.18;100.00
11880;BME280;5999;43.256;27.816;2022-10-16T06:16:57;101102.03;;;14.78;100.00
11880;BME280;5999;43.256;27.816;2022-10-16T06:19:24;101107.38;;;14.96;100.00
11880;BME280;5999;43.256;27.816;2022-10-16T06:21:51;101109.59;;;15.38;100.00
11880;BME280;5999;43.256;27.816;2022-10-16T06:24:18;101098.25;;;16.66;100.00
11880;BME280;5999;43.256;27.816;2022-10-16T06:26:44;101090.38;;;18.13;89.13
11880;BME280;5999;43.256;27.816;2022-10-16T06:29:11;101097.13;;;19.40;78.09
11880;BME280;5999;43.256;27.816;2022-10-16T06:31:39;101099.50;;;19.96;67.78
11880;BME280;5999;43.256;27.816;2022-10-16T06:34:05;101101.59;;;20.04;64.16
11880;BME280;5999;43.256;27.816;2022-10-16T06:36:35;101107.84;;;20.41;62.56
11880;BME280;5999;43.256;27.816;2022-10-16T06:39:03;101111.22;;;20.19;60.92
11880;BME280;5999;43.256;27.816;2022-10-16T06:41:30;101110.53;;;20.28;62.38
11880;BME280;5999;43.256;27.816;2022-10-16T06:43:57;101111.56;;;20.39;60.55
11880;BME280;5999;43.256;27.816;2022-10-16T06:46:25;101117.31;;;20.58;60.40
11880;BME280;5999;43.256;27.816;2022-10-16T06:48:53;101121.88;;;20.32;59.93
11880;BME280;5999;43.256;27.816;2022-10-16T06:51:22;101123.94;;;20.53;59.85
11880;BME280;5999;43.256;27.816;2022-10-16T06:53:52;101132.19;;;20.86;58.26
11880;BME280;5999;43.256;27.816;2022-10-16T06:56:20;101130.84;;;21.16;56.37
11880;BME280;5999;43.256;27.816;2022-10-16T06:58:48;101127.94;;;21.19;56.62
11880;BME280;5999;43.256;27.816;2022-10-16T07:01:16;101129.50;;;21.11;57.07
11880;BME280;5999;43.256;27.816;2022-10-16T07:03:44;101133.94;;;21.23;56.34
11880;BME280;5999;43.256;27.816;2022-10-16T07:06:14;101136.00;;;20.71;57.40
11880;BME280;5999;43.256;27.816;2022-10-16T07:08:42;101136.56;;;20.63;58.73
11880;BME280;5999;43.256;27.816;2022-10-16T07:11:10;101131.91;;;21.02;58.73
11880;BME280;5999;43.256;27.816;2022-10-16T07:13:38;101135.72;;;20.87;58.60
11880;BME280;5999;43.256;27.816;2022-10-16T07:16:06;101146.63;;;20.84;59.08
11880;BME280;5999;43.256;27.816;2022-10-16T07:18:33;101141.97;;;21.34;58.47
11880;BME280;5999;43.256;27.816;2022-10-16T07:21:04;101139.38;;;21.45;58.64
11880;BME280;5999;43.256;27.816;2022-10-16T07:23:32;101150.09;;;21.57;57.85
11880;BME280;5999;43.256;27.816;2022-10-16T07:25:59;101146.69;;;21.43;57.15
11880;BME280;5999;43.256;27.816;2022-10-16T07:28:26;101148.94;;;22.06;56.13
11880;BME280;5999;43.256;27.816;2022-10-16T07:30:52;101149.41;;;22.22;55.57
11880;BME280;5999;43.256;27.816;2022-10-16T07:33:19;101138.19;;;22.51;55.05
11880;BME280;5999;43.256;27.816;2022-10-16T07:35:50;101149.56;;;22.87;52.42
11880;BME280;5999;43.256;27.816;2022-10-16T07:38:17;101156.34;;;23.02;52.45
11880;BME280;5999;43.256;27.816;2022-10-16T07:40:45;101142.25;;;23.42;50.44
11880;BME280;5999;43.256;27.816;2022-10-16T07:43:12;101151.19;;;23.64;49.86
11880;BME280;5999;43.256;27.816;2022-10-16T07:45:47;101151.91;;;23.13;50.22
11880;BME280;5999;43.256;27.816;2022-10-16T07:48:15;101158.34;;;22.89;50.12
11880;BME280;5999;43.256;27.816;2022-10-16T07:50:42;101164.78;;;23.09;50.51
11880;BME280;5999;43.256;27.816;2022-10-16T07:53:10;101166.06;;;23.15;49.98
11880;BME280;5999;43.256;27.816;2022-10-16T07:55:37;101159.09;;;23.65;48.88
11880;BME280;5999;43.256;27.816;2022-10-16T07:58:05;101155.69;;;23.42;48.79
11880;BME280;5999;43.256;27.816;2022-10-16T08:00:33;101154.19;;;23.29;48.58
11880;BME280;5999;43.256;27.816;2022-10-16T08:03:00;101153.88;;;23.64;48.54
11880;BME280;5999;43.256;27.816;2022-10-16T08:05:27;101154.53;;;23.77;48.46
11880;BME280;5999;43.256;27.816;2022-10-16T08:07:55;101155.63;;;23.33;48.52
11880;BME280;5999;43.256;27.816;2022-10-16T08:10:23;101156.00;;;23.49;48.20
11880;BME280;5999;43.256;27.816;2022-10-16T08:12:51;101159.00;;;23.14;49.72
11880;BME280;5999;43.256;27.816;2022-10-16T08:15:18;101155.00;;;23.82;47.99
11880;BME280;5999;43.256;27.816;2022-10-16T08:17:53;101167.81;;;24.40;46.53
11880;BME280;5999;43.256;27.816;2022-10-16T08:20:20;101161.16;;;24.04;46.02
11880;BME280;5999;43.256;27.816;2022-10-16T08:22:47;101178.31;;;23.61;45.99
11880;BME280;5999;43.256;27.816;2022-10-16T08:25:14;101165.66;;;23.52;46.45
11880;BME280;5999;43.256;27.816;2022-10-16T08:27:40;101159.66;;;23.27;47.28
11880;BME280;5999;43.256;27.816;2022-10-16T08:30:09;101162.13;;;23.30;47.37
11880;BME280;5999;43.256;27.816;2022-10-16T08:32:36;101163.09;;;23.50;47.22
11880;BME280;5999;43.256;27.816;2022-10-16T08:35:04;101168.59;;;23.70;47.40
11880;BME280;5999;43.256;27.816;2022-10-16T08:37:31;101172.88;;;23.72;46.14
11880;BME280;5999;43.256;27.816;2022-10-16T08:39:59;101163.69;;;23.96;45.34
11880;BME280;5999;43.256;27.816;2022-10-16T08:42:39;101165.81;;;24.33;45.10
11880;BME280;5999;43.256;27.816;2022-10-16T08:45:27;101165.97;;;24.41;43.99
11880;BME280;5999;43.256;27.816;2022-10-16T08:48:05;101171.59;;;24.59;43.60
11880;BME280;5999;43.256;27.816;2022-10-16T08:50:39;101176.19;;;24.97;42.51
11880;BME280;5999;43.256;27.816;2022-10-16T08:53:09;101180.44;;;24.40;43.03
11880;BME280;5999;43.256;27.816;2022-10-16T08:55:43;101185.81;;;24.40;43.09
11880;BME280;5999;43.256;27.816;2022-10-16T08:58:13;101179.25;;;23.50;44.70
11880;BME280;5999;43.256;27.816;2022-10-16T09:00:40;101183.13;;;24.40;42.99
11880;BME280;5999;43.256;27.816;2022-10-16T09:03:22;101185.59;;;24.53;43.27
11880;BME280;5999;43.256;27.816;2022-10-16T09:06:17;101188.78;;;24.37;42.93
11880;BME280;5999;43.256;27.816;2022-10-16T09:08:59;101184.91;;;24.70;43.68
11880;BME280;5999;43.256;27.816;2022-10-16T09:11:39;101181.41;;;24.79;42.33
11880;BME280;5999;43.256;27.816;2022-10-16T09:14:24;101190.66;;;25.35;42.15
11880;BME280;5999;43.256;27.816;2022-10-16T09:17:07;101186.72;;;25.30;41.47
11880;BME280;5999;43.256;27.816;2022-10-16T09:19:45;101181.53;;;25.75;41.02
11880;BME280;5999;43.256;27.816;2022-10-16T09:22:16;101182.59;;;26.12;40.76
11880;BME280;5999;43.256;27.816;2022-10-16T09:24:43;101188.63;;;26.23;39.27
11880;BME280;5999;43.256;27.816;2022-10-16T09:27:11;101182.47;;;26.41;39.60
11880;BME280;5999;43.256;27.816;2022-10-16T09:29:38;101190.28;;;25.97;39.72
11880;BME280;5999;43.256;27.816;2022-10-16T09:32:12;101189.25;;;26.45;39.64
11880;BME280;5999;43.256;27.816;2022-10-16T09:34:43;101190.28;;;25.97;39.26
11880;BME280;5999;43.256;27.816;2022-10-16T09:37:14;101188.34;;;26.26;39.47
11880;BME280;5999;43.256;27.816;2022-10-16T09:39:48;101194.38;;;25.44;40.18
11880;BME280;5999;43.256;27.816;2022-10-16T09:42:17;101190.88;;;26.65;39.34
11880;BME280;5999;43.256;27.816;2022-10-16T09:44:48;101191.00;;;26.36;38.56
11880;BME280;5999;43.256;27.816;2022-10-16T09:47:18;101190.38;;;27.34;37.81
11880;BME280;5999;43.256;27.816;2022-10-16T09:49:54;101178.66;;;27.69;37.38
11880;BME280;5999;43.256;27.816;2022-10-16T09:52:22;101179.41;;;27.17;37.66
11880;BME280;5999;43.256;27.816;2022-10-16T09:54:51;101183.50;;;27.03;37.17
11880;BME280;5999;43.256;27.816;2022-10-16T09:57:19;101180.19;;;27.10;37.54
11880;BME280;5999;43.256;27.816;2022-10-16T09:59:47;101185.53;;;27.01;38.10
11880;BME280;5999;43.256;27.816;2022-10-16T10:02:16;101181.41;;;27.51;36.56
11880;BME280;5999;43.256;27.816;2022-10-16T10:04:49;101185.59;;;27.28;35.97
11880;BME280;5999;43.256;27.816;2022-10-16T10:07:25;101182.47;;;27.84;35.04
11880;BME280;5999;43.256;27.816;2022-10-16T10:09:53;101186.88;;;28.03;35.28
11880;BME280;5999;43.256;27.816;2022-10-16T10:12:23;101178.19;;;26.94;36.15
11880;BME280;5999;43.256;27.816;2022-10-16T10:14:52;101177.41;;;28.08;35.87
11880;BME280;5999;43.256;27.816;2022-10-16T10:17:21;101170.34;;;27.89;35.60
11880;BME280;5999;43.256;27.816;2022-10-16T10:19:51;101178.34;;;27.72;36.93
11880;BME280;5999;43.256;27.816;2022-10-16T10:22:30;101183.22;;;26.61;37.30
11880;BME280;5999;43.256;27.816;2022-10-16T10:25:10;101184.66;;;26.83;37.12
11880;BME280;5999;43.256;27.816;2022-10-16T10:27:48;101176.53;;;27.19;35.98
11880;BME280;5999;43.256;27.816;2022-10-16T10:30:22;101171.28;;;27.53;36.16
11880;BME280;5999;43.256;27.816;2022-10-16T10:33:00;101160.59;;;27.52;35.45
11880;BME280;5999;43.256;27.816;2022-10-16T10:35:41;101176.88;;;28.04;35.64
11880;BME280;5999;43.256;27.816;2022-10-16T10:38:25;101171.66;;;27.58;36.01
11880;BME280;5999;43.256;27.816;2022-10-16T10:41:00;101171.53;;;27.68;35.08
11880;BME280;5999;43.256;27.816;2022-10-16T10:43:46;101173.31;;;26.79;35.84
11880;BME280;5999;43.256;27.816;2022-10-16T10:46:23;101173.16;;;27.35;35.57
11880;BME280;5999;43.256;27.816;2022-10-16T10:49:08;101169.22;;;27.73;35.45
11880;BME280;5999;43.256;27.816;2022-10-16T10:51:44;101168.56;;;26.63;35.80
11880;BME280;5999;43.256;27.816;2022-10-16T10:54:21;101169.28;;;26.83;35.29
11880;BME280;5999;43.256;27.816;2022-10-16T10:56:57;101159.25;;;26.76;35.55
11880;BME280;5999;43.256;27.816;2022-10-16T11:02:33;101157.75;;;27.53;34.03
11880;BME280;5999;43.256;27.816;2022-10-16T11:05:33;101154.72;;;27.30;35.65
11880;BME280;5999;43.256;27.816;2022-10-16T11:08:10;101153.19;;;27.80;34.96
11880;BME280;5999;43.256;27.816;2022-10-16T11:10:45;101150.94;;;28.36;34.49
11880;BME280;5999;43.256;27.816;2022-10-16T11:13:23;101155.84;;;27.72;34.19
11880;BME280;5999;43.256;27.816;2022-10-16T11:15:52;101150.72;;;27.87;33.77
11880;BME280;5999;43.256;27.816;2022-10-16T11:18:24;101159.78;;;27.33;34.54
11880;BME280;5999;43.256;27.816;2022-10-16T11:20:56;101156.63;;;27.20;35.33
11880;BME280;5999;43.256;27.816;2022-10-16T11:23:27;101157.81;;;26.99;35.30
11880;BME280;5999;43.256;27.816;2022-10-16T11:25:59;101160.81;;;27.32;34.26
11880;BME280;5999;43.256;27.816;2022-10-16T11:28:29;101168.34;;;26.93;35.05
11880;BME280;5999;43.256;27.816;2022-10-16T11:31:03;101166.97;;;27.42;34.89
11880;BME280;5999;43.256;27.816;2022-10-16T11:33:39;101170.78;;;27.58;34.18
11880;BME280;5999;43.256;27.816;2022-10-16T11:36:14;101168.25;;;27.30;33.76
11880;BME280;5999;43.256;27.816;2022-10-16T11:38:51;101140.34;;;26.48;35.41
11880;BME280;5999;43.256;27.816;2022-10-16T11:41:26;101159.94;;;26.22;36.55
11880;BME280;5999;43.256;27.816;2022-10-16T11:46:46;101152.09;;;25.15;37.67
11880;BME280;5999;43.256;27.816;2022-10-16T11:49:17;101150.38;;;26.00;37.00
11880;BME280;5999;43.256;27.816;2022-10-16T11:51:51;101153.84;;;26.20;36.95
11880;BME280;5999;43.256;27.816;2022-10-16T11:54:33;101152.53;;;25.97;36.67
11880;BME280;5999;43.256;27.816;2022-10-16T11:57:10;101148.13;;;26.23;36.63
11880;BME280;5999;43.256;27.816;2022-10-16T11:59:44;101154.78;;;27.02;35.54
11880;BME280;5999;43.256;27.816;2022-10-16T12:02:34;101162.97;;;27.47;34.58
11880;BME280;5999;43.256;27.816;2022-10-16T12:05:15;101159.84;;;27.41;34.94
11880;BME280;5999;43.256;27.816;2022-10-16T12:07:50;101160.13;;;27.82;33.75
11880;BME280;5999;43.256;27.816;2022-10-16T12:10:24;101159.63;;;27.79;34.13
11880;BME280;5999;43.256;27.816;2022-10-16T12:12:52;101161.38;;;27.44;34.68
11880;BME280;5999;43.256;27.816;2022-10-16T12:15:23;101162.34;;;26.53;35.65
11880;BME280;5999;43.256;27.816;2022-10-16T12:17:51;101156.94;;;26.81;35.73
11880;BME280;5999;43.256;27.816;2022-10-16T12:20:27;101159.28;;;27.56;34.58
11880;BME280;5999;43.256;27.816;2022-10-16T12:22:58;101158.50;;;25.91;36.16
11880;BME280;5999;43.256;27.816;2022-10-16T12:25:28;101152.28;;;25.90;36.70
11880;BME280;5999;43.256;27.816;2022-10-16T12:28:02;101158.38;;;26.30;36.47
11880;BME280;5999;43.256;27.816;2022-10-16T12:30:33;101159.06;;;26.59;35.69
11880;BME280;5999;43.256;27.816;2022-10-16T12:33:02;101161.25;;;26.18;36.58
11880;BME280;5999;43.256;27.816;2022-10-16T12:35:32;101167.97;;;26.04;35.92
11880;BME280;5999;43.256;27.816;2022-10-16T12:38:16;101171.91;;;25.63;36.79
11880;BME280;5999;43.256;27.816;2022-10-16T12:40:44;101179.16;;;25.14;37.93
11880;BME280;5999;43.256;27.816;2022-10-16T12:43:24;101190.63;;;25.74;37.45
11880;BME280;5999;43.256;27.816;2022-10-16T12:46:00;101185.41;;;25.63;36.43
11880;BME280;5999;43.256;27.816;2022-10-16T12:48:27;101190.19;;;25.79;36.90
11880;BME280;5999;43.256;27.816;2022-10-16T12:50:55;101187.09;;;25.64;36.65
11880;BME280;5999;43.256;27.816;2022-10-16T12:53:23;101197.09;;;26.01;36.48
11880;BME280;5999;43.256;27.816;2022-10-16T12:56:01;101196.28;;;25.91;36.17
11880;BME280;5999;43.256;27.816;2022-10-16T12:58:53;101190.44;;;26.33;37.02
11880;BME280;5999;43.256;27.816;2022-10-16T13:01:36;101186.78;;;26.61;35.85
11880;BME280;5999;43.256;27.816;2022-10-16T13:04:29;101186.34;;;25.81;36.89
11880;BME280;5999;43.256;27.816;2022-10-16T13:07:12;101181.66;;;25.83;36.78
11880;BME280;5999;43.256;27.816;2022-10-16T13:09:52;101189.53;;;25.48;37.10